Terminal Aerodrome Forecast
Issued by NWS

Home | Current Version | Previous Version | Text Only | Print | Product List | Glossary On
Versions: 1 2 3 4 5 6 7 8 9 10 11 12
000
FTUS42 KMLB 170530
TAFTIX
TAF
KTIX 170530Z 1706/1806 04005KT P6SM SCT025 SCT250
     FM170800 02007KT P6SM VCSH BKN025
     FM171300 02010KT P6SM VCSH SCT015 OVC025
      TEMPO 1713/1717 3SM SHRA BKN015
      AMD NOT SKED TIL 171100=

USA.gov is the U.S. government's official web portal to all federal, state and local government web resources and services.